sensor_id;sensor_type;location;lat;lon;timestamp;P1;durP1;ratioP1;P2;durP2;ratioP2
11518;SDS011;5816;48.228;14.116;2023-01-16T05:35:23;31.63;;;29.13;;
11518;SDS011;5816;48.228;14.116;2023-01-16T05:40:25;28.27;;;25.97;;
11518;SDS011;5816;48.228;14.116;2023-01-16T05:45:27;27.37;;;25.07;;
11518;SDS011;5816;48.228;14.116;2023-01-16T05:50:30;26.60;;;24.57;;
11518;SDS011;5816;48.228;14.116;2023-01-16T05:55:42;26.73;;;24.23;;
11518;SDS011;5816;48.228;14.116;2023-01-16T06:00:45;26.30;;;24.27;;
11518;SDS011;5816;48.228;14.116;2023-01-16T06:05:47;26.07;;;24.03;;
11518;SDS011;5816;48.228;14.116;2023-01-16T06:10:48;26.37;;;23.97;;
11518;SDS011;5816;48.228;14.116;2023-01-16T06:15:51;27.07;;;24.93;;
11518;SDS011;5816;48.228;14.116;2023-01-16T06:20:52;28.93;;;26.53;;
11518;SDS011;5816;48.228;14.116;2023-01-16T06:25:55;28.40;;;25.90;;
11518;SDS011;5816;48.228;14.116;2023-01-16T06:30:56;27.20;;;24.80;;
11518;SDS011;5816;48.228;14.116;2023-01-16T06:35:58;25.07;;;23.07;;
11518;SDS011;5816;48.228;14.116;2023-01-16T06:41:00;25.07;;;23.07;;
11518;SDS011;5816;48.228;14.116;2023-01-16T06:46:03;24.97;;;23.07;;
11518;SDS011;5816;48.228;14.116;2023-01-16T06:51:05;24.30;;;22.50;;
11518;SDS011;5816;48.228;14.116;2023-01-16T06:56:06;25.17;;;23.03;;
11518;SDS011;5816;48.228;14.116;2023-01-16T07:01:08;24.77;;;22.87;;
11518;SDS011;5816;48.228;14.116;2023-01-16T07:06:11;25.50;;;23.40;;
11518;SDS011;5816;48.228;14.116;2023-01-16T07:11:14;25.80;;;23.80;;
11518;SDS011;5816;48.228;14.116;2023-01-16T07:16:15;24.60;;;22.80;;
11518;SDS011;5816;48.228;14.116;2023-01-16T07:21:38;25.83;;;23.93;;
11518;SDS011;5816;48.228;14.116;2023-01-16T07:27:02;24.83;;;22.83;;
11518;SDS011;5816;48.228;14.116;2023-01-16T07:32:06;25.47;;;23.43;;
11518;SDS011;5816;48.228;14.116;2023-01-16T07:37:08;24.87;;;22.87;;
11518;SDS011;5816;48.228;14.116;2023-01-16T07:42:11;26.50;;;24.47;;
11518;SDS011;5816;48.228;14.116;2023-01-16T07:47:13;25.90;;;23.87;;
11518;SDS011;5816;48.228;14.116;2023-01-16T07:52:15;25.23;;;23.10;;
11518;SDS011;5816;48.228;14.116;2023-01-16T07:57:18;24.77;;;22.87;;
11518;SDS011;5816;48.228;14.116;2023-01-16T08:02:20;24.17;;;22.20;;
11518;SDS011;5816;48.228;14.116;2023-01-16T08:07:21;23.57;;;21.77;;
11518;SDS011;5816;48.228;14.116;2023-01-16T08:12:23;23.90;;;22.00;;
11518;SDS011;5816;48.228;14.116;2023-01-16T08:17:24;24.40;;;22.50;;
11518;SDS011;5816;48.228;14.116;2023-01-16T08:22:26;23.47;;;21.67;;
11518;SDS011;5816;48.228;14.116;2023-01-16T08:27:28;23.20;;;21.27;;
11518;SDS011;5816;48.228;14.116;2023-01-16T08:32:30;22.93;;;21.23;;
11518;SDS011;5816;48.228;14.116;2023-01-16T08:37:32;23.00;;;21.20;;
11518;SDS011;5816;48.228;14.116;2023-01-16T08:42:34;22.80;;;21.10;;
11518;SDS011;5816;48.228;14.116;2023-01-16T08:47:54;22.27;;;20.67;;
11518;SDS011;5816;48.228;14.116;2023-01-16T08:53:15;22.43;;;20.83;;
11518;SDS011;5816;48.228;14.116;2023-01-16T08:58:17;21.87;;;20.37;;
11518;SDS011;5816;48.228;14.116;2023-01-16T09:03:22;22.10;;;20.53;;
11518;SDS011;5816;48.228;14.116;2023-01-16T09:08:24;22.53;;;20.83;;
11518;SDS011;5816;48.228;14.116;2023-01-16T09:13:26;22.47;;;20.97;;
11518;SDS011;5816;48.228;14.116;2023-01-16T09:18:47;22.20;;;20.70;;
11518;SDS011;5816;48.228;14.116;2023-01-16T09:23:49;21.77;;;20.27;;
11518;SDS011;5816;48.228;14.116;2023-01-16T09:28:52;21.93;;;20.43;;
11518;SDS011;5816;48.228;14.116;2023-01-16T09:33:53;21.63;;;20.20;;
11518;SDS011;5816;48.228;14.116;2023-01-16T09:38:56;21.10;;;19.60;;
11518;SDS011;5816;48.228;14.116;2023-01-16T09:43:57;20.80;;;19.40;;
11518;SDS011;5816;48.228;14.116;2023-01-16T09:54:05;20.93;;;19.53;;
11518;SDS011;5816;48.228;14.116;2023-01-16T09:59:35;21.10;;;19.70;;
11518;SDS011;5816;48.228;14.116;2023-01-16T10:04:38;20.80;;;19.40;;
11518;SDS011;5816;48.228;14.116;2023-01-16T10:15:05;21.20;;;19.70;;
11518;SDS011;5816;48.228;14.116;2023-01-16T10:20:25;21.10;;;19.70;;
11518;SDS011;5816;48.228;14.116;2023-01-16T10:25:31;21.87;;;20.47;;
11518;SDS011;5816;48.228;14.116;2023-01-16T10:30:50;20.97;;;19.57;;
11518;SDS011;5816;48.228;14.116;2023-01-16T10:35:56;21.23;;;19.83;;
11518;SDS011;5816;48.228;14.116;2023-01-16T10:41:01;24.27;;;22.37;;
11518;SDS011;5816;48.228;14.116;2023-01-16T10:46:24;21.63;;;20.03;;
11518;SDS011;5816;48.228;14.116;2023-01-16T10:51:53;22.10;;;20.50;;
11518;SDS011;5816;48.228;14.116;2023-01-16T10:56:58;22.07;;;20.37;;
11518;SDS011;5816;48.228;14.116;2023-01-16T11:02:10;21.00;;;19.60;;
11518;SDS011;5816;48.228;14.116;2023-01-16T11:07:21;20.07;;;18.63;;
11518;SDS011;5816;48.228;14.116;2023-01-16T11:12:30;19.87;;;18.37;;
11518;SDS011;5816;48.228;14.116;2023-01-16T11:17:51;21.40;;;19.80;;
11518;SDS011;5816;48.228;14.116;2023-01-16T11:23:16;20.90;;;19.30;;
11518;SDS011;5816;48.228;14.116;2023-01-16T11:28:30;23.00;;;21.30;;
11518;SDS011;5816;48.228;14.116;2023-01-16T11:33:37;21.67;;;20.27;;
11518;SDS011;5816;48.228;14.116;2023-01-16T11:38:43;21.33;;;19.93;;
11518;SDS011;5816;48.228;14.116;2023-01-16T11:43:48;22.60;;;21.00;;
11518;SDS011;5816;48.228;14.116;2023-01-16T11:49:39;22.00;;;20.50;;
11518;SDS011;5816;48.228;14.116;2023-01-16T11:54:45;21.37;;;19.97;;
11518;SDS011;5816;48.228;14.116;2023-01-16T12:05:08;22.13;;;20.57;;
11518;SDS011;5816;48.228;14.116;2023-01-16T12:21:03;22.00;;;20.50;;
11518;SDS011;5816;48.228;14.116;2023-01-16T12:58:55;22.40;;;20.80;;
11518;SDS011;5816;48.228;14.116;2023-01-16T13:14:27;23.03;;;21.43;;
11518;SDS011;5816;48.228;14.116;2023-01-16T13:19:31;22.57;;;20.97;;
11518;SDS011;5816;48.228;14.116;2023-01-16T13:30:09;22.73;;;21.17;;
11518;SDS011;5816;48.228;14.116;2023-01-16T13:45:45;22.93;;;21.33;;
11518;SDS011;5816;48.228;14.116;2023-01-16T13:50:58;22.77;;;21.07;;
11518;SDS011;5816;48.228;14.116;2023-01-16T14:01:33;22.77;;;21.20;;
11518;SDS011;5816;48.228;14.116;2023-01-16T14:12:16;22.73;;;21.13;;
11518;SDS011;5816;48.228;14.116;2023-01-16T14:17:21;25.03;;;23.33;;
11518;SDS011;5816;48.228;14.116;2023-01-16T14:22:35;23.33;;;21.73;;
11518;SDS011;5816;48.228;14.116;2023-01-16T14:27:41;23.17;;;21.57;;
11518;SDS011;5816;48.228;14.116;2023-01-16T14:32:46;23.10;;;21.50;;
11518;SDS011;5816;48.228;14.116;2023-01-16T14:38:00;23.67;;;21.97;;
11518;SDS011;5816;48.228;14.116;2023-01-16T14:43:07;22.80;;;21.20;;
11518;SDS011;5816;48.228;14.116;2023-01-16T14:48:34;23.10;;;21.50;;
11518;SDS011;5816;48.228;14.116;2023-01-16T14:53:57;22.67;;;21.17;;
11518;SDS011;5816;48.228;14.116;2023-01-16T15:10:14;22.93;;;21.43;;
11518;SDS011;5816;48.228;14.116;2023-01-16T15:20:27;23.13;;;21.60;;
11518;SDS011;5816;48.228;14.116;2023-01-16T15:31:14;21.23;;;19.53;;
11518;SDS011;5816;48.228;14.116;2023-01-16T15:36:52;21.47;;;19.97;;
11518;SDS011;5816;48.228;14.116;2023-01-16T15:41:59;21.30;;;19.90;;
11518;SDS011;5816;48.228;14.116;2023-01-16T15:52:29;22.37;;;20.77;;
11518;SDS011;5816;48.228;14.116;2023-01-16T15:57:33;22.33;;;20.93;;
11518;SDS011;5816;48.228;14.116;2023-01-16T16:02:40;22.40;;;21.00;;
11518;SDS011;5816;48.228;14.116;2023-01-16T16:07:43;21.73;;;20.33;;
11518;SDS011;5816;48.228;14.116;2023-01-16T16:12:45;22.47;;;20.60;;
11518;SDS011;5816;48.228;14.116;2023-01-16T16:17:58;24.37;;;22.77;;
11518;SDS011;5816;48.228;14.116;2023-01-16T16:33:30;21.10;;;19.70;;
11518;SDS011;5816;48.228;14.116;2023-01-16T16:38:41;21.47;;;20.10;;
11518;SDS011;5816;48.228;14.116;2023-01-16T16:43:48;21.50;;;20.10;;
11518;SDS011;5816;48.228;14.116;2023-01-16T16:54:09;22.30;;;20.57;;
11518;SDS011;5816;48.228;14.116;2023-01-16T16:59:15;22.40;;;20.90;;
11518;SDS011;5816;48.228;14.116;2023-01-16T17:04:20;23.53;;;21.87;;
11518;SDS011;5816;48.228;14.116;2023-01-16T17:09:24;24.97;;;23.17;;
11518;SDS011;5816;48.228;14.116;2023-01-16T17:14:29;25.50;;;23.80;;
11518;SDS011;5816;48.228;14.116;2023-01-16T17:19:31;22.77;;;21.37;;
11518;SDS011;5816;48.228;14.116;2023-01-16T17:24:33;23.83;;;22.13;;
11518;SDS011;5816;48.228;14.116;2023-01-16T17:29:35;23.17;;;21.57;;
11518;SDS011;5816;48.228;14.116;2023-01-16T17:34:43;24.17;;;22.30;;
11518;SDS011;5816;48.228;14.116;2023-01-16T17:39:45;22.80;;;21.20;;
11518;SDS011;5816;48.228;14.116;2023-01-16T17:44:47;23.70;;;21.90;;
11518;SDS011;5816;48.228;14.116;2023-01-16T17:50:07;22.60;;;20.90;;
11518;SDS011;5816;48.228;14.116;2023-01-16T17:55:21;24.33;;;22.73;;
11518;SDS011;5816;48.228;14.116;2023-01-16T18:00:43;23.33;;;21.73;;
11518;SDS011;5816;48.228;14.116;2023-01-16T18:05:45;24.80;;;23.10;;
11518;SDS011;5816;48.228;14.116;2023-01-16T18:10:47;23.80;;;22.20;;
11518;SDS011;5816;48.228;14.116;2023-01-16T18:15:49;23.40;;;21.70;;
11518;SDS011;5816;48.228;14.116;2023-01-16T18:21:10;25.80;;;23.83;;
11518;SDS011;5816;48.228;14.116;2023-01-16T18:26:32;24.03;;;22.43;;
11518;SDS011;5816;48.228;14.116;2023-01-16T18:31:34;22.97;;;21.37;;
11518;SDS011;5816;48.228;14.116;2023-01-16T18:36:35;23.30;;;21.70;;
11518;SDS011;5816;48.228;14.116;2023-01-16T18:41:37;22.17;;;20.67;;
11518;SDS011;5816;48.228;14.116;2023-01-16T18:46:57;22.23;;;20.67;;
11518;SDS011;5816;48.228;14.116;2023-01-16T18:52:17;22.30;;;20.70;;
11518;SDS011;5816;48.228;14.116;2023-01-16T18:57:38;23.13;;;21.53;;
11518;SDS011;5816;48.228;14.116;2023-01-16T19:02:58;22.30;;;20.80;;
11518;SDS011;5816;48.228;14.116;2023-01-16T19:08:00;22.27;;;20.80;;
11518;SDS011;5816;48.228;14.116;2023-01-16T19:13:04;25.20;;;23.50;;
11518;SDS011;5816;48.228;14.116;2023-01-16T19:18:09;25.60;;;23.63;;
11518;SDS011;5816;48.228;14.116;2023-01-16T19:23:11;24.17;;;22.50;;
11518;SDS011;5816;48.228;14.116;2023-01-16T19:28:15;25.13;;;23.33;;
11518;SDS011;5816;48.228;14.116;2023-01-16T19:33:17;25.07;;;23.27;;
11518;SDS011;5816;48.228;14.116;2023-01-16T19:38:18;24.63;;;22.83;;
11518;SDS011;5816;48.228;14.116;2023-01-16T19:43:20;24.57;;;22.77;;
11518;SDS011;5816;48.228;14.116;2023-01-16T19:48:40;24.53;;;22.73;;
11518;SDS011;5816;48.228;14.116;2023-01-16T19:53:42;24.17;;;22.37;;
11518;SDS011;5816;48.228;14.116;2023-01-16T19:58:44;24.73;;;22.83;;
11518;SDS011;5816;48.228;14.116;2023-01-16T20:03:46;23.73;;;21.83;;
11518;SDS011;5816;48.228;14.116;2023-01-16T20:08:47;23.10;;;21.40;;
11518;SDS011;5816;48.228;14.116;2023-01-16T20:13:51;24.03;;;22.23;;
11518;SDS011;5816;48.228;14.116;2023-01-16T20:18:54;23.23;;;21.53;;
11518;SDS011;5816;48.228;14.116;2023-01-16T20:23:55;22.43;;;20.83;;
11518;SDS011;5816;48.228;14.116;2023-01-16T20:28:57;23.20;;;21.50;;
11518;SDS011;5816;48.228;14.116;2023-01-16T20:34:00;23.30;;;21.60;;
11518;SDS011;5816;48.228;14.116;2023-01-16T20:39:02;26.70;;;24.50;;
11518;SDS011;5816;48.228;14.116;2023-01-16T20:44:10;28.60;;;26.30;;
11518;SDS011;5816;48.228;14.116;2023-01-16T20:49:43;27.97;;;25.57;;
11518;SDS011;5816;48.228;14.116;2023-01-16T20:54:45;26.43;;;24.33;;
11518;SDS011;5816;48.228;14.116;2023-01-16T20:59:49;25.13;;;23.23;;
11518;SDS011;5816;48.228;14.116;2023-01-16T21:04:53;23.70;;;22.00;;
11518;SDS011;5816;48.228;14.116;2023-01-16T21:09:55;24.33;;;22.33;;
11518;SDS011;5816;48.228;14.116;2023-01-16T21:14:56;29.40;;;26.40;;
11518;SDS011;5816;48.228;14.116;2023-01-16T21:19:58;27.00;;;24.50;;
11518;SDS011;5816;48.228;14.116;2023-01-16T21:25:18;25.27;;;22.87;;
11518;SDS011;5816;48.228;14.116;2023-01-16T21:30:23;27.63;;;24.87;;
11518;SDS011;5816;48.228;14.116;2023-01-16T21:35:25;25.47;;;23.37;;
11518;SDS011;5816;48.228;14.116;2023-01-16T21:40:27;26.80;;;24.17;;
11518;SDS011;5816;48.228;14.116;2023-01-16T21:45:28;24.43;;;22.53;;
11518;SDS011;5816;48.228;14.116;2023-01-16T21:50:52;24.93;;;22.93;;
11518;SDS011;5816;48.228;14.116;2023-01-16T21:55:56;25.13;;;23.07;;
11518;SDS011;5816;48.228;14.116;2023-01-16T22:01:01;25.37;;;23.27;;
11518;SDS011;5816;48.228;14.116;2023-01-16T22:06:05;25.33;;;23.23;;
11518;SDS011;5816;48.228;14.116;2023-01-16T22:11:14;23.47;;;21.67;;
11518;SDS011;5816;48.228;14.116;2023-01-16T22:16:35;26.30;;;24.20;;
11518;SDS011;5816;48.228;14.116;2023-01-16T22:21:55;26.03;;;23.83;;
11518;SDS011;5816;48.228;14.116;2023-01-16T22:26:57;24.23;;;22.33;;
11518;SDS011;5816;48.228;14.116;2023-01-16T22:31:58;23.60;;;21.90;;
11518;SDS011;5816;48.228;14.116;2023-01-16T22:37:01;25.10;;;23.10;;
11518;SDS011;5816;48.228;14.116;2023-01-16T22:42:02;25.63;;;23.33;;
11518;SDS011;5816;48.228;14.116;2023-01-16T22:47:04;26.47;;;24.07;;
11518;SDS011;5816;48.228;14.116;2023-01-16T22:52:10;26.23;;;23.93;;
11518;SDS011;5816;48.228;14.116;2023-01-16T22:57:12;26.10;;;23.80;;
11518;SDS011;5816;48.228;14.116;2023-01-16T23:02:14;24.90;;;23.00;;
11518;SDS011;5816;48.228;14.116;2023-01-16T23:07:16;24.43;;;22.53;;
11518;SDS011;5816;48.228;14.116;2023-01-16T23:12:17;24.13;;;22.33;;
11518;SDS011;5816;48.228;14.116;2023-01-16T23:17:19;24.60;;;22.70;;
11518;SDS011;5816;48.228;14.116;2023-01-16T23:22:23;23.63;;;21.93;;
11518;SDS011;5816;48.228;14.116;2023-01-16T23:27:24;24.37;;;22.57;;
11518;SDS011;5816;48.228;14.116;2023-01-16T23:32:26;23.60;;;21.80;;
11518;SDS011;5816;48.228;14.116;2023-01-16T23:37:28;24.60;;;22.70;;
11518;SDS011;5816;48.228;14.116;2023-01-16T23:42:37;23.97;;;22.27;;
11518;SDS011;5816;48.228;14.116;2023-01-16T23:47:58;23.93;;;22.17;;
11518;SDS011;5816;48.228;14.116;2023-01-16T23:52:59;24.03;;;22.27;;
11518;SDS011;5816;48.228;14.116;2023-01-16T23:58:01;23.43;;;21.73;;
